Aérodrome :
LOGIN :

S'inscrire | Disclaimer

   EN    FR    IT 

 










Légende :    VFR   VFR Marginal   IFR   IFR Intensif   IFR Très Intensif
Visi : 
Plafond : 
>= 8 km
>= 3000ft
5 à 8 km
1000 à 3000 ft
1500m à 5 km
500 à 1000 ft
800 à 1500m
200 à 500 ft
< 800m
< 200 ft
Symboles :   Orages  Brouillard  Fortes neiges  Fortes précipitations  Vent > 20 kt
SIGMETs :   Divers  Orages  Givrage  Turbulence  Onde Orograph.  Cendres Volcan.






- Altitude de l'aérodrome : 125 ft
- Code IATA : MGL


EDLN - Mönchengladbach

DERNIER METAR :
  • 022120Z AUTO 31008KT 9999 // FEW220/// 21/11 Q1011

METARs EXPIRÉS :
  • 022050Z AUTO 32006KT 9999 // FEW230/// 21/11 Q1011
  • 022020Z AUTO 32009KT 9999 // FEW230/// 22/11 Q1011
  • 021950Z AUTO 31009KT 9999 // NCD 23/11 Q1011
  • 021920Z AUTO 00000KT 7000 // NCD 20/12 Q1011
  • 021850Z AUTO 00000KT 9999 // NCD 22/11 Q1011
  • 021820Z 11002KT CAVOK 25/11 Q1011

TAF TAF EDLN
Valide du 02 à 18h jusqu'au 03 à 03h UTC


021700Z 0218/0303 27004KT CAVOK



MET'MAP, la Météo Aéronautique d'un coup d'oeil ! - Copyright ORBIFLY Décembre 2007 - Disclaimer

ORBIFLY MET'MAP TEAM :

Programmation & Développement : Alexandra Zaïnal
Sur une idée originale de : Baudouin d'Aumeries
Assistance à la programmation : Marc-Olivier Méhu
Soutien technique & logistique : Manuel Goepfert

Contact : metmap@orbifly.com




SOURCES & CREDITS :

   NOAA